sensor_id;sensor_type;location;lat;lon;timestamp;P1;durP1;ratioP1;P2;durP2;ratioP2
22146;SDS011;13074;48.298;14.424;2023-01-13T00:00:03;16.20;;;4.20;;
22146;SDS011;13074;48.298;14.424;2023-01-13T00:02:34;14.53;;;4.30;;
22146;SDS011;13074;48.298;14.424;2023-01-13T00:08:18;7.03;;;3.43;;
22146;SDS011;13074;48.298;14.424;2023-01-13T00:10:46;9.27;;;4.17;;
22146;SDS011;13074;48.298;14.424;2023-01-13T00:13:13;8.07;;;4.00;;
22146;SDS011;13074;48.298;14.424;2023-01-13T00:15:41;8.50;;;3.97;;
22146;SDS011;13074;48.298;14.424;2023-01-13T00:18:08;8.73;;;3.50;;
22146;SDS011;13074;48.298;14.424;2023-01-13T00:20:36;7.37;;;3.50;;
22146;SDS011;13074;48.298;14.424;2023-01-13T00:23:03;5.77;;;3.30;;
22146;SDS011;13074;48.298;14.424;2023-01-13T00:25:32;6.80;;;2.60;;
22146;SDS011;13074;48.298;14.424;2023-01-13T00:27:59;6.10;;;2.70;;
22146;SDS011;13074;48.298;14.424;2023-01-13T00:33:49;6.17;;;2.27;;
22146;SDS011;13074;48.298;14.424;2023-01-13T00:36:17;9.63;;;2.50;;
22146;SDS011;13074;48.298;14.424;2023-01-13T00:38:46;2.60;;;2.07;;
22146;SDS011;13074;48.298;14.424;2023-01-13T00:41:16;6.17;;;2.60;;
22146;SDS011;13074;48.298;14.424;2023-01-13T00:43:45;5.43;;;2.60;;
22146;SDS011;13074;48.298;14.424;2023-01-13T00:48:37;3.87;;;2.03;;
22146;SDS011;13074;48.298;14.424;2023-01-13T00:51:06;3.67;;;2.23;;
22146;SDS011;13074;48.298;14.424;2023-01-13T00:53:35;4.10;;;1.60;;
22146;SDS011;13074;48.298;14.424;2023-01-13T00:56:04;3.83;;;1.77;;
22146;SDS011;13074;48.298;14.424;2023-01-13T00:58:36;3.50;;;2.00;;
22146;SDS011;13074;48.298;14.424;2023-01-13T01:01:04;2.73;;;1.73;;
22146;SDS011;13074;48.298;14.424;2023-01-13T01:03:34;3.90;;;2.00;;
22146;SDS011;13074;48.298;14.424;2023-01-13T01:06:03;6.53;;;2.27;;
22146;SDS011;13074;48.298;14.424;2023-01-13T01:08:32;4.47;;;2.50;;
22146;SDS011;13074;48.298;14.424;2023-01-13T01:11:00;4.93;;;2.07;;
22146;SDS011;13074;48.298;14.424;2023-01-13T01:13:29;6.70;;;2.67;;
22146;SDS011;13074;48.298;14.424;2023-01-13T01:15:58;4.57;;;2.23;;
22146;SDS011;13074;48.298;14.424;2023-01-13T01:18:25;8.67;;;2.50;;
22146;SDS011;13074;48.298;14.424;2023-01-13T01:20:53;5.90;;;2.23;;
22146;SDS011;13074;48.298;14.424;2023-01-13T01:23:24;7.20;;;2.30;;
22146;SDS011;13074;48.298;14.424;2023-01-13T01:25:53;7.17;;;2.57;;
22146;SDS011;13074;48.298;14.424;2023-01-13T01:28:23;5.23;;;2.40;;
22146;SDS011;13074;48.298;14.424;2023-01-13T01:30:51;6.57;;;2.97;;
22146;SDS011;13074;48.298;14.424;2023-01-13T01:36:08;7.53;;;2.40;;
22146;SDS011;13074;48.298;14.424;2023-01-13T01:38:37;5.27;;;2.20;;
22146;SDS011;13074;48.298;14.424;2023-01-13T01:41:05;3.53;;;2.30;;
22146;SDS011;13074;48.298;14.424;2023-01-13T01:43:43;7.03;;;3.13;;
22146;SDS011;13074;48.298;14.424;2023-01-13T01:46:29;5.53;;;3.40;;
22146;SDS011;13074;48.298;14.424;2023-01-13T01:52:22;4.60;;;3.00;;
22146;SDS011;13074;48.298;14.424;2023-01-13T01:54:53;5.37;;;2.73;;
22146;SDS011;13074;48.298;14.424;2023-01-13T01:57:25;6.13;;;2.83;;
22146;SDS011;13074;48.298;14.424;2023-01-13T01:59:56;6.03;;;2.60;;
22146;SDS011;13074;48.298;14.424;2023-01-13T02:02:26;4.83;;;2.57;;
22146;SDS011;13074;48.298;14.424;2023-01-13T02:04:53;5.03;;;2.67;;
22146;SDS011;13074;48.298;14.424;2023-01-13T02:07:23;6.33;;;2.87;;
22146;SDS011;13074;48.298;14.424;2023-01-13T02:09:53;6.80;;;2.40;;
22146;SDS011;13074;48.298;14.424;2023-01-13T02:12:22;8.90;;;2.73;;
22146;SDS011;13074;48.298;14.424;2023-01-13T02:14:58;9.43;;;2.80;;
22146;SDS011;13074;48.298;14.424;2023-01-13T02:17:37;8.23;;;3.00;;
22146;SDS011;13074;48.298;14.424;2023-01-13T02:29:46;8.73;;;4.00;;
22146;SDS011;13074;48.298;14.424;2023-01-13T02:32:38;7.43;;;3.73;;
22146;SDS011;13074;48.298;14.424;2023-01-13T02:35:14;8.40;;;3.50;;
22146;SDS011;13074;48.298;14.424;2023-01-13T02:37:47;6.50;;;2.87;;
22146;SDS011;13074;48.298;14.424;2023-01-13T02:40:17;8.90;;;3.77;;
22146;SDS011;13074;48.298;14.424;2023-01-13T02:42:50;7.23;;;3.73;;
22146;SDS011;13074;48.298;14.424;2023-01-13T02:45:59;8.70;;;3.37;;
22146;SDS011;13074;48.298;14.424;2023-01-13T02:48:32;7.03;;;3.53;;
22146;SDS011;13074;48.298;14.424;2023-01-13T02:51:03;5.57;;;3.27;;
22146;SDS011;13074;48.298;14.424;2023-01-13T02:53:33;5.97;;;3.23;;
22146;SDS011;13074;48.298;14.424;2023-01-13T02:56:04;7.53;;;3.30;;
22146;SDS011;13074;48.298;14.424;2023-01-13T02:58:34;6.80;;;3.93;;
22146;SDS011;13074;48.298;14.424;2023-01-13T03:01:05;6.00;;;3.43;;
22146;SDS011;13074;48.298;14.424;2023-01-13T03:03:32;9.00;;;3.47;;
22146;SDS011;13074;48.298;14.424;2023-01-13T03:06:03;9.83;;;3.47;;
22146;SDS011;13074;48.298;14.424;2023-01-13T03:08:44;5.73;;;3.40;;
22146;SDS011;13074;48.298;14.424;2023-01-13T03:11:16;9.37;;;3.50;;
22146;SDS011;13074;48.298;14.424;2023-01-13T03:13:54;7.73;;;3.60;;
22146;SDS011;13074;48.298;14.424;2023-01-13T03:19:35;7.20;;;3.50;;
22146;SDS011;13074;48.298;14.424;2023-01-13T03:22:10;8.70;;;3.87;;
22146;SDS011;13074;48.298;14.424;2023-01-13T03:24:46;9.50;;;3.70;;
22146;SDS011;13074;48.298;14.424;2023-01-13T03:27:20;11.43;;;3.23;;
22146;SDS011;13074;48.298;14.424;2023-01-13T03:29:53;8.93;;;4.00;;
22146;SDS011;13074;48.298;14.424;2023-01-13T03:32:26;10.27;;;4.23;;
22146;SDS011;13074;48.298;14.424;2023-01-13T03:34:57;8.90;;;3.97;;
22146;SDS011;13074;48.298;14.424;2023-01-13T03:37:30;8.13;;;3.63;;
22146;SDS011;13074;48.298;14.424;2023-01-13T03:40:01;8.13;;;3.90;;
22146;SDS011;13074;48.298;14.424;2023-01-13T03:42:33;11.30;;;3.53;;
22146;SDS011;13074;48.298;14.424;2023-01-13T03:45:04;11.80;;;3.63;;
22146;SDS011;13074;48.298;14.424;2023-01-13T03:47:37;7.27;;;3.73;;
22146;SDS011;13074;48.298;14.424;2023-01-13T03:50:08;6.70;;;3.47;;
22146;SDS011;13074;48.298;14.424;2023-01-13T03:52:41;7.77;;;3.53;;
22146;SDS011;13074;48.298;14.424;2023-01-13T03:55:11;4.20;;;2.83;;
22146;SDS011;13074;48.298;14.424;2023-01-13T03:57:42;9.10;;;3.10;;
22146;SDS011;13074;48.298;14.424;2023-01-13T04:00:14;5.57;;;3.20;;
22146;SDS011;13074;48.298;14.424;2023-01-13T04:02:46;5.67;;;2.90;;
22146;SDS011;13074;48.298;14.424;2023-01-13T04:05:16;9.10;;;3.47;;
22146;SDS011;13074;48.298;14.424;2023-01-13T04:07:46;5.07;;;3.10;;
22146;SDS011;13074;48.298;14.424;2023-01-13T04:10:17;7.23;;;3.00;;
22146;SDS011;13074;48.298;14.424;2023-01-13T04:12:50;5.10;;;2.60;;
22146;SDS011;13074;48.298;14.424;2023-01-13T04:15:32;5.13;;;2.70;;
22146;SDS011;13074;48.298;14.424;2023-01-13T04:18:11;7.67;;;2.70;;
22146;SDS011;13074;48.298;14.424;2023-01-13T04:20:40;6.80;;;2.93;;
22146;SDS011;13074;48.298;14.424;2023-01-13T04:23:09;5.83;;;2.73;;
22146;SDS011;13074;48.298;14.424;2023-01-13T04:25:38;4.43;;;2.20;;
22146;SDS011;13074;48.298;14.424;2023-01-13T04:28:05;4.57;;;2.07;;
22146;SDS011;13074;48.298;14.424;2023-01-13T04:30:32;3.90;;;1.97;;
22146;SDS011;13074;48.298;14.424;2023-01-13T04:33:00;6.63;;;2.70;;
22146;SDS011;13074;48.298;14.424;2023-01-13T04:35:29;4.13;;;3.20;;
22146;SDS011;13074;48.298;14.424;2023-01-13T04:37:59;6.90;;;3.47;;
22146;SDS011;13074;48.298;14.424;2023-01-13T04:40:26;5.43;;;3.33;;
22146;SDS011;13074;48.298;14.424;2023-01-13T04:42:54;7.77;;;2.70;;
22146;SDS011;13074;48.298;14.424;2023-01-13T04:45:21;5.03;;;2.70;;
22146;SDS011;13074;48.298;14.424;2023-01-13T04:47:48;5.77;;;3.10;;
22146;SDS011;13074;48.298;14.424;2023-01-13T04:50:15;5.93;;;2.60;;
22146;SDS011;13074;48.298;14.424;2023-01-13T04:52:46;3.30;;;2.00;;
22146;SDS011;13074;48.298;14.424;2023-01-13T04:55:13;3.43;;;2.17;;
22146;SDS011;13074;48.298;14.424;2023-01-13T04:57:40;3.10;;;2.13;;
22146;SDS011;13074;48.298;14.424;2023-01-13T05:00:08;4.57;;;1.60;;
22146;SDS011;13074;48.298;14.424;2023-01-13T05:02:37;9.87;;;1.90;;
22146;SDS011;13074;48.298;14.424;2023-01-13T05:05:05;4.93;;;2.13;;
22146;SDS011;13074;48.298;14.424;2023-01-13T05:07:33;9.00;;;1.97;;
22146;SDS011;13074;48.298;14.424;2023-01-13T05:10:02;4.60;;;2.00;;
22146;SDS011;13074;48.298;14.424;2023-01-13T05:12:29;6.70;;;2.47;;
22146;SDS011;13074;48.298;14.424;2023-01-13T05:15:13;4.63;;;2.50;;
22146;SDS011;13074;48.298;14.424;2023-01-13T05:17:58;4.20;;;2.20;;
22146;SDS011;13074;48.298;14.424;2023-01-13T05:20:25;2.80;;;1.60;;
22146;SDS011;13074;48.298;14.424;2023-01-13T05:22:52;5.00;;;1.77;;
22146;SDS011;13074;48.298;14.424;2023-01-13T05:25:39;2.27;;;1.33;;
22146;SDS011;13074;48.298;14.424;2023-01-13T05:28:07;2.27;;;1.07;;
22146;SDS011;13074;48.298;14.424;2023-01-13T05:30:36;2.43;;;1.37;;
22146;SDS011;13074;48.298;14.424;2023-01-13T05:33:06;2.83;;;1.10;;
22146;SDS011;13074;48.298;14.424;2023-01-13T05:35:33;2.63;;;1.40;;
22146;SDS011;13074;48.298;14.424;2023-01-13T05:38:03;6.10;;;1.40;;
22146;SDS011;13074;48.298;14.424;2023-01-13T05:40:30;2.30;;;1.40;;
22146;SDS011;13074;48.298;14.424;2023-01-13T05:43:17;3.73;;;1.73;;
22146;SDS011;13074;48.298;14.424;2023-01-13T05:45:46;3.20;;;1.80;;
22146;SDS011;13074;48.298;14.424;2023-01-13T05:48:15;5.23;;;1.93;;
22146;SDS011;13074;48.298;14.424;2023-01-13T05:50:43;5.83;;;2.40;;
22146;SDS011;13074;48.298;14.424;2023-01-13T05:53:10;8.50;;;2.57;;
22146;SDS011;13074;48.298;14.424;2023-01-13T05:55:38;5.27;;;2.27;;
22146;SDS011;13074;48.298;14.424;2023-01-13T05:58:06;6.30;;;2.37;;
22146;SDS011;13074;48.298;14.424;2023-01-13T06:00:35;5.20;;;2.10;;
22146;SDS011;13074;48.298;14.424;2023-01-13T06:03:02;7.57;;;2.20;;
22146;SDS011;13074;48.298;14.424;2023-01-13T06:05:30;6.60;;;2.17;;
22146;SDS011;13074;48.298;14.424;2023-01-13T06:07:59;5.50;;;2.30;;
22146;SDS011;13074;48.298;14.424;2023-01-13T06:10:27;6.07;;;2.00;;
22146;SDS011;13074;48.298;14.424;2023-01-13T06:12:55;5.73;;;2.37;;
22146;SDS011;13074;48.298;14.424;2023-01-13T06:15:23;4.47;;;1.73;;
22146;SDS011;13074;48.298;14.424;2023-01-13T06:17:52;4.40;;;2.00;;
22146;SDS011;13074;48.298;14.424;2023-01-13T06:20:19;2.53;;;1.60;;
22146;SDS011;13074;48.298;14.424;2023-01-13T06:22:47;2.33;;;1.60;;
22146;SDS011;13074;48.298;14.424;2023-01-13T06:25:17;1.80;;;1.50;;
22146;SDS011;13074;48.298;14.424;2023-01-13T06:27:48;2.53;;;1.50;;
22146;SDS011;13074;48.298;14.424;2023-01-13T06:30:16;2.23;;;1.10;;
22146;SDS011;13074;48.298;14.424;2023-01-13T06:32:44;2.13;;;1.00;;
22146;SDS011;13074;48.298;14.424;2023-01-13T06:35:17;1.63;;;1.07;;
22146;SDS011;13074;48.298;14.424;2023-01-13T06:37:47;2.33;;;1.10;;
22146;SDS011;13074;48.298;14.424;2023-01-13T06:40:16;3.43;;;1.00;;
22146;SDS011;13074;48.298;14.424;2023-01-13T06:42:44;1.33;;;1.00;;
22146;SDS011;13074;48.298;14.424;2023-01-13T06:45:28;1.20;;;0.83;;
22146;SDS011;13074;48.298;14.424;2023-01-13T06:47:56;0.93;;;0.87;;
22146;SDS011;13074;48.298;14.424;2023-01-13T06:50:26;1.67;;;1.10;;
22146;SDS011;13074;48.298;14.424;2023-01-13T06:52:54;1.20;;;1.03;;
22146;SDS011;13074;48.298;14.424;2023-01-13T06:55:21;3.73;;;1.23;;
22146;SDS011;13074;48.298;14.424;2023-01-13T06:57:49;1.10;;;0.90;;
22146;SDS011;13074;48.298;14.424;2023-01-13T07:00:18;1.27;;;0.90;;
22146;SDS011;13074;48.298;14.424;2023-01-13T07:02:46;1.07;;;0.97;;
22146;SDS011;13074;48.298;14.424;2023-01-13T07:05:13;1.53;;;1.27;;
22146;SDS011;13074;48.298;14.424;2023-01-13T07:07:43;1.27;;;1.00;;
22146;SDS011;13074;48.298;14.424;2023-01-13T07:10:11;1.43;;;1.00;;
22146;SDS011;13074;48.298;14.424;2023-01-13T07:12:46;2.10;;;1.00;;
22146;SDS011;13074;48.298;14.424;2023-01-13T07:15:32;0.93;;;0.90;;
22146;SDS011;13074;48.298;14.424;2023-01-13T07:18:00;3.80;;;1.10;;
22146;SDS011;13074;48.298;14.424;2023-01-13T07:20:28;2.93;;;0.80;;
22146;SDS011;13074;48.298;14.424;2023-01-13T07:22:57;0.97;;;0.80;;
22146;SDS011;13074;48.298;14.424;2023-01-13T07:25:24;1.03;;;0.87;;
22146;SDS011;13074;48.298;14.424;2023-01-13T07:27:51;0.93;;;0.87;;
22146;SDS011;13074;48.298;14.424;2023-01-13T07:30:18;1.67;;;0.90;;
22146;SDS011;13074;48.298;14.424;2023-01-13T07:32:46;2.17;;;1.20;;
22146;SDS011;13074;48.298;14.424;2023-01-13T07:35:13;1.40;;;1.10;;
22146;SDS011;13074;48.298;14.424;2023-01-13T07:37:41;2.83;;;1.47;;
22146;SDS011;13074;48.298;14.424;2023-01-13T07:40:10;2.00;;;1.17;;
22146;SDS011;13074;48.298;14.424;2023-01-13T07:42:38;1.20;;;0.90;;
22146;SDS011;13074;48.298;14.424;2023-01-13T07:45:22;2.60;;;1.00;;
22146;SDS011;13074;48.298;14.424;2023-01-13T07:47:50;3.33;;;1.00;;
22146;SDS011;13074;48.298;14.424;2023-01-13T07:50:18;1.80;;;0.90;;
22146;SDS011;13074;48.298;14.424;2023-01-13T07:52:52;2.90;;;1.30;;
22146;SDS011;13074;48.298;14.424;2023-01-13T07:55:24;1.97;;;1.30;;
22146;SDS011;13074;48.298;14.424;2023-01-13T07:57:51;1.03;;;0.93;;
22146;SDS011;13074;48.298;14.424;2023-01-13T08:00:18;2.70;;;1.20;;
22146;SDS011;13074;48.298;14.424;2023-01-13T08:02:46;2.47;;;1.43;;
22146;SDS011;13074;48.298;14.424;2023-01-13T08:05:13;6.73;;;3.60;;
22146;SDS011;13074;48.298;14.424;2023-01-13T08:07:40;5.77;;;2.50;;
22146;SDS011;13074;48.298;14.424;2023-01-13T08:10:09;3.97;;;1.90;;
22146;SDS011;13074;48.298;14.424;2023-01-13T08:12:38;3.70;;;1.70;;
22146;SDS011;13074;48.298;14.424;2023-01-13T08:15:23;2.70;;;1.60;;
22146;SDS011;13074;48.298;14.424;2023-01-13T08:17:50;2.80;;;1.77;;
22146;SDS011;13074;48.298;14.424;2023-01-13T08:20:17;3.60;;;1.60;;
22146;SDS011;13074;48.298;14.424;2023-01-13T08:22:44;5.63;;;1.73;;
22146;SDS011;13074;48.298;14.424;2023-01-13T08:25:11;4.80;;;1.87;;
22146;SDS011;13074;48.298;14.424;2023-01-13T08:27:40;3.07;;;1.60;;
22146;SDS011;13074;48.298;14.424;2023-01-13T08:30:07;2.93;;;1.50;;
22146;SDS011;13074;48.298;14.424;2023-01-13T08:32:35;4.30;;;2.03;;
22146;SDS011;13074;48.298;14.424;2023-01-13T08:35:03;4.30;;;1.80;;
22146;SDS011;13074;48.298;14.424;2023-01-13T08:37:30;2.43;;;1.50;;
22146;SDS011;13074;48.298;14.424;2023-01-13T08:39:57;6.90;;;1.90;;
22146;SDS011;13074;48.298;14.424;2023-01-13T08:42:24;7.23;;;3.60;;
22146;SDS011;13074;48.298;14.424;2023-01-13T08:44:53;19.77;;;8.07;;
22146;SDS011;13074;48.298;14.424;2023-01-13T08:47:20;12.67;;;6.20;;
22146;SDS011;13074;48.298;14.424;2023-01-13T08:49:47;18.20;;;8.43;;
22146;SDS011;13074;48.298;14.424;2023-01-13T08:52:14;10.17;;;4.00;;
22146;SDS011;13074;48.298;14.424;2023-01-13T08:54:42;4.13;;;1.60;;
22146;SDS011;13074;48.298;14.424;2023-01-13T08:57:09;4.03;;;1.60;;
22146;SDS011;13074;48.298;14.424;2023-01-13T08:59:36;4.63;;;1.70;;
22146;SDS011;13074;48.298;14.424;2023-01-13T09:02:07;2.83;;;1.40;;
22146;SDS011;13074;48.298;14.424;2023-01-13T09:04:38;1.67;;;0.90;;
22146;SDS011;13074;48.298;14.424;2023-01-13T09:07:06;2.37;;;1.00;;
22146;SDS011;13074;48.298;14.424;2023-01-13T09:09:33;0.87;;;0.80;;
22146;SDS011;13074;48.298;14.424;2023-01-13T09:12:01;1.57;;;0.90;;
22146;SDS011;13074;48.298;14.424;2023-01-13T09:14:45;3.27;;;1.07;;
22146;SDS011;13074;48.298;14.424;2023-01-13T09:17:15;1.57;;;0.90;;
22146;SDS011;13074;48.298;14.424;2023-01-13T09:19:42;1.03;;;0.93;;
22146;SDS011;13074;48.298;14.424;2023-01-13T09:22:09;4.57;;;2.53;;
22146;SDS011;13074;48.298;14.424;2023-01-13T09:24:41;3.87;;;2.13;;
22146;SDS011;13074;48.298;14.424;2023-01-13T09:27:08;4.93;;;2.47;;
22146;SDS011;13074;48.298;14.424;2023-01-13T09:29:35;2.57;;;1.90;;
22146;SDS011;13074;48.298;14.424;2023-01-13T09:32:03;2.67;;;1.83;;
22146;SDS011;13074;48.298;14.424;2023-01-13T09:34:32;3.33;;;1.67;;
22146;SDS011;13074;48.298;14.424;2023-01-13T09:37:17;6.67;;;3.80;;
22146;SDS011;13074;48.298;14.424;2023-01-13T09:39:44;8.97;;;4.07;;
22146;SDS011;13074;48.298;14.424;2023-01-13T09:42:13;4.03;;;2.10;;
22146;SDS011;13074;48.298;14.424;2023-01-13T09:45:04;4.17;;;2.80;;
22146;SDS011;13074;48.298;14.424;2023-01-13T09:47:34;7.17;;;2.57;;
22146;SDS011;13074;48.298;14.424;2023-01-13T09:50:17;2.63;;;2.00;;
22146;SDS011;13074;48.298;14.424;2023-01-13T09:52:49;5.20;;;2.20;;
22146;SDS011;13074;48.298;14.424;2023-01-13T09:55:20;5.23;;;2.37;;
22146;SDS011;13074;48.298;14.424;2023-01-13T09:57:50;3.93;;;1.60;;
22146;SDS011;13074;48.298;14.424;2023-01-13T10:00:19;7.97;;;2.17;;
22146;SDS011;13074;48.298;14.424;2023-01-13T10:02:54;1.80;;;1.57;;
22146;SDS011;13074;48.298;14.424;2023-01-13T10:05:32;3.27;;;1.80;;
22146;SDS011;13074;48.298;14.424;2023-01-13T10:08:02;2.63;;;1.50;;
22146;SDS011;13074;48.298;14.424;2023-01-13T10:10:38;3.63;;;1.50;;
22146;SDS011;13074;48.298;14.424;2023-01-13T10:13:13;3.53;;;1.80;;
22146;SDS011;13074;48.298;14.424;2023-01-13T10:15:45;4.90;;;1.80;;
22146;SDS011;13074;48.298;14.424;2023-01-13T10:18:20;3.53;;;1.70;;
22146;SDS011;13074;48.298;14.424;2023-01-13T10:20:58;4.30;;;2.10;;
22146;SDS011;13074;48.298;14.424;2023-01-13T10:23:35;5.53;;;2.17;;
22146;SDS011;13074;48.298;14.424;2023-01-13T10:26:16;5.90;;;1.50;;
22146;SDS011;13074;48.298;14.424;2023-01-13T10:29:02;2.63;;;1.63;;
22146;SDS011;13074;48.298;14.424;2023-01-13T10:31:43;2.63;;;1.37;;
22146;SDS011;13074;48.298;14.424;2023-01-13T10:34:10;3.57;;;1.60;;
22146;SDS011;13074;48.298;14.424;2023-01-13T10:36:39;2.27;;;1.50;;
22146;SDS011;13074;48.298;14.424;2023-01-13T10:39:25;4.53;;;2.10;;
22146;SDS011;13074;48.298;14.424;2023-01-13T10:42:02;5.63;;;3.53;;
22146;SDS011;13074;48.298;14.424;2023-01-13T10:44:30;8.07;;;3.60;;
22146;SDS011;13074;48.298;14.424;2023-01-13T10:46:58;9.80;;;3.77;;
22146;SDS011;13074;48.298;14.424;2023-01-13T10:49:29;7.70;;;3.90;;
22146;SDS011;13074;48.298;14.424;2023-01-13T10:51:59;7.07;;;3.77;;
22146;SDS011;13074;48.298;14.424;2023-01-13T10:54:27;8.30;;;4.23;;
22146;SDS011;13074;48.298;14.424;2023-01-13T11:03:01;7.27;;;4.23;;
22146;SDS011;13074;48.298;14.424;2023-01-13T11:05:38;9.60;;;3.80;;
22146;SDS011;13074;48.298;14.424;2023-01-13T11:08:13;6.67;;;3.63;;
22146;SDS011;13074;48.298;14.424;2023-01-13T11:10:44;7.90;;;3.60;;
22146;SDS011;13074;48.298;14.424;2023-01-13T11:13:14;5.23;;;3.27;;
22146;SDS011;13074;48.298;14.424;2023-01-13T11:15:45;9.53;;;3.63;;
22146;SDS011;13074;48.298;14.424;2023-01-13T11:18:19;7.80;;;4.03;;
22146;SDS011;13074;48.298;14.424;2023-01-13T11:20:51;5.93;;;3.80;;
22146;SDS011;13074;48.298;14.424;2023-01-13T11:23:23;5.90;;;3.40;;
22146;SDS011;13074;48.298;14.424;2023-01-13T11:25:57;5.03;;;3.27;;
22146;SDS011;13074;48.298;14.424;2023-01-13T11:28:34;7.57;;;3.63;;
22146;SDS011;13074;48.298;14.424;2023-01-13T11:31:09;6.77;;;2.73;;
22146;SDS011;13074;48.298;14.424;2023-01-13T11:33:42;4.60;;;1.90;;
22146;SDS011;13074;48.298;14.424;2023-01-13T11:36:15;3.20;;;1.87;;
22146;SDS011;13074;48.298;14.424;2023-01-13T11:38:48;3.70;;;1.70;;
22146;SDS011;13074;48.298;14.424;2023-01-13T11:41:21;2.50;;;1.53;;
22146;SDS011;13074;48.298;14.424;2023-01-13T11:43:54;6.40;;;2.07;;
22146;SDS011;13074;48.298;14.424;2023-01-13T11:46:30;3.97;;;1.70;;
22146;SDS011;13074;48.298;14.424;2023-01-13T11:48:57;2.83;;;1.70;;
22146;SDS011;13074;48.298;14.424;2023-01-13T11:51:29;4.63;;;1.70;;
22146;SDS011;13074;48.298;14.424;2023-01-13T11:54:11;2.83;;;1.83;;
22146;SDS011;13074;48.298;14.424;2023-01-13T11:56:56;6.40;;;2.63;;
22146;SDS011;13074;48.298;14.424;2023-01-13T11:59:43;4.80;;;2.50;;
22146;SDS011;13074;48.298;14.424;2023-01-13T12:02:32;5.80;;;3.00;;
22146;SDS011;13074;48.298;14.424;2023-01-13T12:05:14;6.83;;;4.10;;
22146;SDS011;13074;48.298;14.424;2023-01-13T12:07:50;12.10;;;5.90;;
22146;SDS011;13074;48.298;14.424;2023-01-13T12:10:30;8.17;;;5.67;;
22146;SDS011;13074;48.298;14.424;2023-01-13T12:13:09;13.60;;;5.97;;
22146;SDS011;13074;48.298;14.424;2023-01-13T12:21:37;14.03;;;5.57;;
22146;SDS011;13074;48.298;14.424;2023-01-13T12:24:10;8.83;;;5.70;;
22146;SDS011;13074;48.298;14.424;2023-01-13T12:26:45;8.20;;;4.70;;
22146;SDS011;13074;48.298;14.424;2023-01-13T12:29:18;7.63;;;4.27;;
22146;SDS011;13074;48.298;14.424;2023-01-13T12:31:46;6.63;;;4.20;;
22146;SDS011;13074;48.298;14.424;2023-01-13T12:34:26;5.30;;;3.57;;
22146;SDS011;13074;48.298;14.424;2023-01-13T12:37:06;6.20;;;3.30;;
22146;SDS011;13074;48.298;14.424;2023-01-13T12:39:41;5.13;;;3.37;;
22146;SDS011;13074;48.298;14.424;2023-01-13T12:42:19;14.80;;;6.87;;
22146;SDS011;13074;48.298;14.424;2023-01-13T12:45:25;8.83;;;5.77;;
22146;SDS011;13074;48.298;14.424;2023-01-13T12:47:54;11.37;;;7.03;;
22146;SDS011;13074;48.298;14.424;2023-01-13T12:50:35;11.63;;;7.07;;
22146;SDS011;13074;48.298;14.424;2023-01-13T12:53:27;17.77;;;9.33;;
22146;SDS011;13074;48.298;14.424;2023-01-13T13:04:56;2.03;;;1.50;;
22146;SDS011;13074;48.298;14.424;2023-01-13T13:07:29;3.33;;;1.20;;
22146;SDS011;13074;48.298;14.424;2023-01-13T13:10:04;1.23;;;1.13;;
22146;SDS011;13074;48.298;14.424;2023-01-13T13:12:51;5.47;;;1.13;;
22146;SDS011;13074;48.298;14.424;2023-01-13T13:15:40;1.23;;;1.13;;
22146;SDS011;13074;48.298;14.424;2023-01-13T13:18:27;1.83;;;1.10;;
22146;SDS011;13074;48.298;14.424;2023-01-13T13:20:58;4.47;;;1.30;;
22146;SDS011;13074;48.298;14.424;2023-01-13T13:26:37;1.43;;;1.10;;
22146;SDS011;13074;48.298;14.424;2023-01-13T13:29:21;2.30;;;1.40;;
22146;SDS011;13074;48.298;14.424;2023-01-13T13:35:22;5.77;;;1.90;;
22146;SDS011;13074;48.298;14.424;2023-01-13T13:38:02;8.00;;;3.80;;
22146;SDS011;13074;48.298;14.424;2023-01-13T13:41:01;7.20;;;3.80;;
22146;SDS011;13074;48.298;14.424;2023-01-13T13:43:53;20.60;;;9.53;;
22146;SDS011;13074;48.298;14.424;2023-01-13T13:46:45;20.77;;;8.60;;
22146;SDS011;13074;48.298;14.424;2023-01-13T13:49:13;9.53;;;4.53;;
22146;SDS011;13074;48.298;14.424;2023-01-13T13:51:45;10.53;;;4.83;;
22146;SDS011;13074;48.298;14.424;2023-01-13T13:54:17;3.87;;;2.50;;
22146;SDS011;13074;48.298;14.424;2023-01-13T13:56:46;4.17;;;2.73;;
22146;SDS011;13074;48.298;14.424;2023-01-13T13:59:16;6.03;;;3.77;;
22146;SDS011;13074;48.298;14.424;2023-01-13T14:01:49;5.93;;;3.77;;
22146;SDS011;13074;48.298;14.424;2023-01-13T14:04:25;10.20;;;5.47;;
22146;SDS011;13074;48.298;14.424;2023-01-13T14:06:56;8.23;;;4.33;;
22146;SDS011;13074;48.298;14.424;2023-01-13T14:09:25;9.47;;;5.23;;
22146;SDS011;13074;48.298;14.424;2023-01-13T14:11:55;5.20;;;3.43;;
22146;SDS011;13074;48.298;14.424;2023-01-13T14:14:24;8.87;;;3.90;;
22146;SDS011;13074;48.298;14.424;2023-01-13T14:16:51;9.40;;;4.17;;
22146;SDS011;13074;48.298;14.424;2023-01-13T14:19:24;7.60;;;4.00;;
22146;SDS011;13074;48.298;14.424;2023-01-13T14:21:55;13.10;;;4.53;;
22146;SDS011;13074;48.298;14.424;2023-01-13T14:24:23;8.47;;;4.00;;
22146;SDS011;13074;48.298;14.424;2023-01-13T14:26:51;6.87;;;3.97;;
22146;SDS011;13074;48.298;14.424;2023-01-13T14:29:19;8.77;;;4.80;;
22146;SDS011;13074;48.298;14.424;2023-01-13T14:31:48;5.53;;;4.57;;
22146;SDS011;13074;48.298;14.424;2023-01-13T14:34:18;6.93;;;4.33;;
22146;SDS011;13074;48.298;14.424;2023-01-13T14:36:47;8.50;;;4.77;;
22146;SDS011;13074;48.298;14.424;2023-01-13T14:39:23;10.23;;;5.27;;
22146;SDS011;13074;48.298;14.424;2023-01-13T14:41:52;12.33;;;5.23;;
22146;SDS011;13074;48.298;14.424;2023-01-13T14:44:21;10.37;;;5.80;;
22146;SDS011;13074;48.298;14.424;2023-01-13T14:46:50;11.27;;;5.70;;
22146;SDS011;13074;48.298;14.424;2023-01-13T14:49:22;9.57;;;5.40;;
22146;SDS011;13074;48.298;14.424;2023-01-13T14:52:01;10.70;;;5.70;;
22146;SDS011;13074;48.298;14.424;2023-01-13T14:54:43;7.30;;;5.17;;
22146;SDS011;13074;48.298;14.424;2023-01-13T14:57:15;8.17;;;5.70;;
22146;SDS011;13074;48.298;14.424;2023-01-13T14:59:55;9.00;;;5.53;;
22146;SDS011;13074;48.298;14.424;2023-01-13T15:08:04;12.63;;;6.70;;
22146;SDS011;13074;48.298;14.424;2023-01-13T15:10:45;9.63;;;6.47;;
22146;SDS011;13074;48.298;14.424;2023-01-13T15:13:26;9.70;;;6.17;;
22146;SDS011;13074;48.298;14.424;2023-01-13T15:16:00;8.77;;;5.70;;
22146;SDS011;13074;48.298;14.424;2023-01-13T15:18:30;8.03;;;5.50;;
22146;SDS011;13074;48.298;14.424;2023-01-13T15:20:58;12.87;;;5.60;;
22146;SDS011;13074;48.298;14.424;2023-01-13T15:23:25;11.80;;;5.37;;
22146;SDS011;13074;48.298;14.424;2023-01-13T15:25:54;9.07;;;5.73;;
22146;SDS011;13074;48.298;14.424;2023-01-13T15:28:22;11.43;;;5.97;;
22146;SDS011;13074;48.298;14.424;2023-01-13T15:30:51;10.27;;;4.27;;
22146;SDS011;13074;48.298;14.424;2023-01-13T15:33:20;8.37;;;4.50;;
22146;SDS011;13074;48.298;14.424;2023-01-13T15:35:48;7.33;;;4.00;;
22146;SDS011;13074;48.298;14.424;2023-01-13T15:38:17;7.80;;;4.03;;
22146;SDS011;13074;48.298;14.424;2023-01-13T15:40:46;5.53;;;3.70;;
22146;SDS011;13074;48.298;14.424;2023-01-13T15:43:17;7.00;;;3.73;;
22146;SDS011;13074;48.298;14.424;2023-01-13T15:46:04;8.77;;;3.33;;
22146;SDS011;13074;48.298;14.424;2023-01-13T15:48:54;7.47;;;3.10;;
22146;SDS011;13074;48.298;14.424;2023-01-13T15:51:22;5.03;;;3.30;;
22146;SDS011;13074;48.298;14.424;2023-01-13T15:53:50;4.90;;;3.10;;
22146;SDS011;13074;48.298;14.424;2023-01-13T15:56:19;5.07;;;3.03;;
22146;SDS011;13074;48.298;14.424;2023-01-13T15:58:50;4.73;;;2.90;;
22146;SDS011;13074;48.298;14.424;2023-01-13T16:01:17;9.17;;;3.27;;